sensor_id;sensor_type;location;lat;lon;timestamp;temperature;humidity
66740;DHT22;53653;52.188;8.602;2023-02-02T00:01:37;4.93;84.12
66740;DHT22;53653;52.188;8.602;2023-02-02T00:04:03;4.94;84.06
66740;DHT22;53653;52.188;8.602;2023-02-02T00:06:30;4.91;84.31
66740;DHT22;53653;52.188;8.602;2023-02-02T00:08:58;4.85;84.50
66740;DHT22;53653;52.188;8.602;2023-02-02T00:11:24;4.87;84.82
66740;DHT22;53653;52.188;8.602;2023-02-02T00:13:50;4.88;85.00
66740;DHT22;53653;52.188;8.602;2023-02-02T00:16:36;4.84;85.22
66740;DHT22;53653;52.188;8.602;2023-02-02T00:19:12;4.83;85.42
66740;DHT22;53653;52.188;8.602;2023-02-02T00:21:38;4.79;85.65
66740;DHT22;53653;52.188;8.602;2023-02-02T00:24:05;4.76;85.79
66740;DHT22;53653;52.188;8.602;2023-02-02T00:26:31;4.77;85.95
66740;DHT22;53653;52.188;8.602;2023-02-02T00:28:57;4.74;86.11
66740;DHT22;53653;52.188;8.602;2023-02-02T00:31:22;4.73;86.18
66740;DHT22;53653;52.188;8.602;2023-02-02T00:33:49;4.76;86.14
66740;DHT22;53653;52.188;8.602;2023-02-02T00:36:16;4.73;86.22
66740;DHT22;53653;52.188;8.602;2023-02-02T00:38:42;4.70;86.21
66740;DHT22;53653;52.188;8.602;2023-02-02T00:41:08;4.73;86.20
66740;DHT22;53653;52.188;8.602;2023-02-02T00:43:34;4.77;86.15
66740;DHT22;53653;52.188;8.602;2023-02-02T00:46:00;4.74;86.10
66740;DHT22;53653;52.188;8.602;2023-02-02T00:48:25;4.74;86.17
66740;DHT22;53653;52.188;8.602;2023-02-02T00:50:52;4.74;86.28
66740;DHT22;53653;52.188;8.602;2023-02-02T00:53:17;4.73;86.30
66740;DHT22;53653;52.188;8.602;2023-02-02T00:55:43;4.74;86.33
66740;DHT22;53653;52.188;8.602;2023-02-02T00:58:10;4.72;86.38
66740;DHT22;53653;52.188;8.602;2023-02-02T01:00:35;4.70;86.34
66740;DHT22;53653;52.188;8.602;2023-02-02T01:03:02;4.70;86.44
66740;DHT22;53653;52.188;8.602;2023-02-02T01:05:33;4.70;86.45
66740;DHT22;53653;52.188;8.602;2023-02-02T01:07:59;4.69;86.44
66740;DHT22;53653;52.188;8.602;2023-02-02T01:10:24;4.67;86.46
66740;DHT22;53653;52.188;8.602;2023-02-02T01:12:50;4.67;86.46
66740;DHT22;53653;52.188;8.602;2023-02-02T01:15:15;4.62;86.61
66740;DHT22;53653;52.188;8.602;2023-02-02T01:17:41;4.60;86.68
66740;DHT22;53653;52.188;8.602;2023-02-02T01:20:07;4.60;86.67
66740;DHT22;53653;52.188;8.602;2023-02-02T01:22:33;4.64;86.70
66740;DHT22;53653;52.188;8.602;2023-02-02T06:08:48;5.58;83.49
66740;DHT22;53653;52.188;8.602;2023-02-02T06:11:16;5.58;84.00
66740;DHT22;53653;52.188;8.602;2023-02-02T06:13:42;5.56;84.77
66740;DHT22;53653;52.188;8.602;2023-02-02T06:16:08;5.51;85.26
66740;DHT22;53653;52.188;8.602;2023-02-02T06:18:35;5.51;85.60
66740;DHT22;53653;52.188;8.602;2023-02-02T06:21:03;5.53;85.49
66740;DHT22;53653;52.188;8.602;2023-02-02T06:23:31;5.53;85.07
66740;DHT22;53653;52.188;8.602;2023-02-02T06:25:56;5.48;85.47
66740;DHT22;53653;52.188;8.602;2023-02-02T06:28:22;5.48;85.55
66740;DHT22;53653;52.188;8.602;2023-02-02T06:30:48;5.48;86.13
66740;DHT22;53653;52.188;8.602;2023-02-02T06:33:13;5.43;86.34
66740;DHT22;53653;52.188;8.602;2023-02-02T06:35:39;5.51;85.98
66740;DHT22;53653;52.188;8.602;2023-02-02T06:38:04;5.42;86.22
66740;DHT22;53653;52.188;8.602;2023-02-02T06:40:30;5.39;86.44
66740;DHT22;53653;52.188;8.602;2023-02-02T06:42:56;5.36;86.78
66740;DHT22;53653;52.188;8.602;2023-02-02T06:45:22;5.34;86.99
66740;DHT22;53653;52.188;8.602;2023-02-02T06:47:48;5.27;87.22
66740;DHT22;53653;52.188;8.602;2023-02-02T06:50:15;5.22;87.61
66740;DHT22;53653;52.188;8.602;2023-02-02T06:52:50;5.18;87.62
66740;DHT22;53653;52.188;8.602;2023-02-02T06:55:17;5.12;87.82
66740;DHT22;53653;52.188;8.602;2023-02-02T06:57:42;5.08;88.36
66740;DHT22;53653;52.188;8.602;2023-02-02T07:00:09;5.05;88.57
66740;DHT22;53653;52.188;8.602;2023-02-02T07:02:36;5.03;88.58
66740;DHT22;53653;52.188;8.602;2023-02-02T07:05:02;4.97;88.79
66740;DHT22;53653;52.188;8.602;2023-02-02T07:07:31;4.91;89.20
66740;DHT22;53653;52.188;8.602;2023-02-02T07:09:57;4.88;89.40
66740;DHT22;53653;52.188;8.602;2023-02-02T07:12:22;4.85;89.62
66740;DHT22;53653;52.188;8.602;2023-02-02T07:14:49;4.85;89.57
66740;DHT22;53653;52.188;8.602;2023-02-02T07:17:14;4.79;89.83
66740;DHT22;53653;52.188;8.602;2023-02-02T07:19:40;4.79;89.88
66740;DHT22;53653;52.188;8.602;2023-02-02T07:22:05;4.77;89.98
66740;DHT22;53653;52.188;8.602;2023-02-02T07:24:31;4.70;90.20
66740;DHT22;53653;52.188;8.602;2023-02-02T07:26:57;4.74;90.27
66740;DHT22;53653;52.188;8.602;2023-02-02T07:29:22;4.72;90.41
66740;DHT22;53653;52.188;8.602;2023-02-02T07:31:48;4.67;90.53
66740;DHT22;53653;52.188;8.602;2023-02-02T07:34:13;4.70;90.38
66740;DHT22;53653;52.188;8.602;2023-02-02T07:36:39;4.69;90.36
66740;DHT22;53653;52.188;8.602;2023-02-02T07:39:04;4.66;90.38
66740;DHT22;53653;52.188;8.602;2023-02-02T07:41:34;4.64;90.55
66740;DHT22;53653;52.188;8.602;2023-02-02T07:44:00;4.69;90.70
66740;DHT22;53653;52.188;8.602;2023-02-02T07:46:26;4.69;90.48
66740;DHT22;53653;52.188;8.602;2023-02-02T07:48:53;4.67;90.73
66740;DHT22;53653;52.188;8.602;2023-02-02T07:51:23;4.70;90.69
66740;DHT22;53653;52.188;8.602;2023-02-02T07:53:51;4.67;90.69
66740;DHT22;53653;52.188;8.602;2023-02-02T07:56:20;4.67;90.82
66740;DHT22;53653;52.188;8.602;2023-02-02T07:58:47;4.73;90.64
66740;DHT22;53653;52.188;8.602;2023-02-02T08:01:14;4.66;90.84
66740;DHT22;53653;52.188;8.602;2023-02-02T08:03:40;4.73;90.90
66740;DHT22;53653;52.188;8.602;2023-02-02T08:08:35;4.69;90.96
66740;DHT22;53653;52.188;8.602;2023-02-02T08:11:01;4.76;90.99
66740;DHT22;53653;52.188;8.602;2023-02-02T08:13:26;4.80;90.84
66740;DHT22;53653;52.188;8.602;2023-02-02T08:15:52;4.80;90.60
66740;DHT22;53653;52.188;8.602;2023-02-02T08:18:17;4.80;90.82
66740;DHT22;53653;52.188;8.602;2023-02-02T08:20:44;4.77;90.80
66740;DHT22;53653;52.188;8.602;2023-02-02T08:23:10;4.84;90.84
66740;DHT22;53653;52.188;8.602;2023-02-02T08:25:40;4.80;90.79
66740;DHT22;53653;52.188;8.602;2023-02-02T08:28:06;4.81;90.86
66740;DHT22;53653;52.188;8.602;2023-02-02T08:30:31;4.83;90.62
66740;DHT22;53653;52.188;8.602;2023-02-02T08:32:58;4.83;90.48
66740;DHT22;53653;52.188;8.602;2023-02-02T08:35:23;4.83;90.60
66740;DHT22;53653;52.188;8.602;2023-02-02T08:37:49;4.83;90.43
66740;DHT22;53653;52.188;8.602;2023-02-02T08:40:15;4.80;90.83
66740;DHT22;53653;52.188;8.602;2023-02-02T08:42:41;4.81;90.51
66740;DHT22;53653;52.188;8.602;2023-02-02T08:45:08;4.83;90.67
66740;DHT22;53653;52.188;8.602;2023-02-02T08:47:33;4.84;90.78
66740;DHT22;53653;52.188;8.602;2023-02-02T08:49:59;4.84;90.78
66740;DHT22;53653;52.188;8.602;2023-02-02T08:52:24;4.84;90.75
66740;DHT22;53653;52.188;8.602;2023-02-02T08:54:50;4.85;90.63
66740;DHT22;53653;52.188;8.602;2023-02-02T08:57:15;4.90;90.58
66740;DHT22;53653;52.188;8.602;2023-02-02T08:59:41;4.87;90.60
66740;DHT22;53653;52.188;8.602;2023-02-02T09:02:09;4.91;90.61
66740;DHT22;53653;52.188;8.602;2023-02-02T09:04:35;4.91;90.60
66740;DHT22;53653;52.188;8.602;2023-02-02T09:07:00;4.88;90.71
66740;DHT22;53653;52.188;8.602;2023-02-02T09:09:26;4.94;90.68
66740;DHT22;53653;52.188;8.602;2023-02-02T09:11:52;4.98;90.38
66740;DHT22;53653;52.188;8.602;2023-02-02T09:14:17;4.94;90.69
66740;DHT22;53653;52.188;8.602;2023-02-02T09:16:43;5.00;90.47
66740;DHT22;53653;52.188;8.602;2023-02-02T09:19:09;5.03;90.51
66740;DHT22;53653;52.188;8.602;2023-02-02T09:21:36;5.00;90.31
66740;DHT22;53653;52.188;8.602;2023-02-02T09:24:09;5.00;90.69
66740;DHT22;53653;52.188;8.602;2023-02-02T09:26:36;5.04;90.68
66740;DHT22;53653;52.188;8.602;2023-02-02T09:29:09;5.14;90.32
66740;DHT22;53653;52.188;8.602;2023-02-02T09:31:36;5.14;90.37
66740;DHT22;53653;52.188;8.602;2023-02-02T09:34:10;5.14;90.28
66740;DHT22;53653;52.188;8.602;2023-02-02T09:36:37;5.18;90.32
66740;DHT22;53653;52.188;8.602;2023-02-02T09:39:03;5.21;89.96
66740;DHT22;53653;52.188;8.602;2023-02-02T09:47:34;5.21;90.34
66740;DHT22;53653;52.188;8.602;2023-02-02T09:52:41;5.30;90.52
66740;DHT22;53653;52.188;8.602;2023-02-02T10:00:40;5.38;90.44
66740;DHT22;53653;52.188;8.602;2023-02-02T10:03:23;5.49;89.39
66740;DHT22;53653;52.188;8.602;2023-02-02T10:06:05;5.46;89.50
66740;DHT22;53653;52.188;8.602;2023-02-02T10:08:41;5.49;89.08
66740;DHT22;53653;52.188;8.602;2023-02-02T10:16:54;5.55;88.81
66740;DHT22;53653;52.188;8.602;2023-02-02T10:19:23;5.58;88.73
66740;DHT22;53653;52.188;8.602;2023-02-02T10:22:04;5.56;88.40
66740;DHT22;53653;52.188;8.602;2023-02-02T10:24:32;5.53;88.57
66740;DHT22;53653;52.188;8.602;2023-02-02T10:27:03;5.58;88.73
66740;DHT22;53653;52.188;8.602;2023-02-02T10:29:59;5.59;88.30
66740;DHT22;53653;52.188;8.602;2023-02-02T10:32:27;5.58;88.09
66740;DHT22;53653;52.188;8.602;2023-02-02T10:35:21;5.62;88.13
66740;DHT22;53653;52.188;8.602;2023-02-02T10:38:02;5.70;88.14
66740;DHT22;53653;52.188;8.602;2023-02-02T10:46:05;5.70;87.28
66740;DHT22;53653;52.188;8.602;2023-02-02T10:48:34;5.73;87.97
66740;DHT22;53653;52.188;8.602;2023-02-02T10:51:05;5.76;87.29
66740;DHT22;53653;52.188;8.602;2023-02-02T10:53:33;5.79;87.49
66740;DHT22;53653;52.188;8.602;2023-02-02T10:56:02;5.85;87.21
66740;DHT22;53653;52.188;8.602;2023-02-02T10:58:36;5.81;86.90
66740;DHT22;53653;52.188;8.602;2023-02-02T11:01:03;5.85;87.44
66740;DHT22;53653;52.188;8.602;2023-02-02T11:03:32;5.90;87.38
66740;DHT22;53653;52.188;8.602;2023-02-02T11:06:00;5.89;87.34
66740;DHT22;53653;52.188;8.602;2023-02-02T11:08:48;5.89;86.88
66740;DHT22;53653;52.188;8.602;2023-02-02T11:11:22;5.90;87.18
66740;DHT22;53653;52.188;8.602;2023-02-02T11:13:55;5.89;86.87
66740;DHT22;53653;52.188;8.602;2023-02-02T11:16:27;5.97;86.90
66740;DHT22;53653;52.188;8.602;2023-02-02T11:18:53;6.00;86.92
66740;DHT22;53653;52.188;8.602;2023-02-02T11:21:27;6.07;85.94
66740;DHT22;53653;52.188;8.602;2023-02-02T11:24:00;6.11;86.19
66740;DHT22;53653;52.188;8.602;2023-02-02T11:26:47;6.18;86.30
66740;DHT22;53653;52.188;8.602;2023-02-02T11:29:17;6.25;85.77
66740;DHT22;53653;52.188;8.602;2023-02-02T11:31:45;6.25;85.44
66740;DHT22;53653;52.188;8.602;2023-02-02T11:34:18;6.30;85.67
66740;DHT22;53653;52.188;8.602;2023-02-02T11:37:11;6.35;85.65
66740;DHT22;53653;52.188;8.602;2023-02-02T11:39:38;6.37;85.21
66740;DHT22;53653;52.188;8.602;2023-02-02T11:42:13;6.35;85.10
66740;DHT22;53653;52.188;8.602;2023-02-02T11:44:45;6.27;85.23
66740;DHT22;53653;52.188;8.602;2023-02-02T11:47:25;6.28;85.88
66740;DHT22;53653;52.188;8.602;2023-02-02T11:49:53;6.38;85.92
66740;DHT22;53653;52.188;8.602;2023-02-02T11:52:21;6.42;86.05
66740;DHT22;53653;52.188;8.602;2023-02-02T11:54:50;6.44;85.56
66740;DHT22;53653;52.188;8.602;2023-02-02T11:57:19;6.49;85.64
66740;DHT22;53653;52.188;8.602;2023-02-02T11:59:48;6.41;85.72
66740;DHT22;53653;52.188;8.602;2023-02-02T12:02:28;6.35;85.40
66740;DHT22;53653;52.188;8.602;2023-02-02T12:07:41;6.42;86.67
66740;DHT22;53653;52.188;8.602;2023-02-02T12:10:40;6.44;86.30
66740;DHT22;53653;52.188;8.602;2023-02-02T12:13:12;6.46;86.41
66740;DHT22;53653;52.188;8.602;2023-02-02T12:18:37;6.49;85.73
66740;DHT22;53653;52.188;8.602;2023-02-02T12:21:08;6.38;86.06
66740;DHT22;53653;52.188;8.602;2023-02-02T12:26:44;6.41;86.15
66740;DHT22;53653;52.188;8.602;2023-02-02T12:34:37;6.25;86.40
66740;DHT22;53653;52.188;8.602;2023-02-02T12:37:24;6.24;86.33
66740;DHT22;53653;52.188;8.602;2023-02-02T12:43:30;6.30;86.76
66740;DHT22;53653;52.188;8.602;2023-02-02T12:51:34;6.25;86.87
66740;DHT22;53653;52.188;8.602;2023-02-02T12:54:19;6.20;87.03
66740;DHT22;53653;52.188;8.602;2023-02-02T12:57:17;6.20;87.34
66740;DHT22;53653;52.188;8.602;2023-02-02T12:59:53;6.14;87.51
66740;DHT22;53653;52.188;8.602;2023-02-02T13:05:31;6.13;88.13
66740;DHT22;53653;52.188;8.602;2023-02-02T13:08:09;6.11;87.99
66740;DHT22;53653;52.188;8.602;2023-02-02T13:10:39;6.10;88.26
66740;DHT22;53653;52.188;8.602;2023-02-02T13:15:47;6.11;88.54
66740;DHT22;53653;52.188;8.602;2023-02-02T13:20:43;6.10;88.60
66740;DHT22;53653;52.188;8.602;2023-02-02T13:23:18;6.18;88.98
66740;DHT22;53653;52.188;8.602;2023-02-02T13:25:52;6.10;88.67
66740;DHT22;53653;52.188;8.602;2023-02-02T13:28:29;6.14;89.22
66740;DHT22;53653;52.188;8.602;2023-02-02T13:30:58;6.09;88.83
66740;DHT22;53653;52.188;8.602;2023-02-02T13:33:31;6.11;88.99
66740;DHT22;53653;52.188;8.602;2023-02-02T13:38:32;6.17;89.45
66740;DHT22;53653;52.188;8.602;2023-02-02T13:41:08;6.22;89.09
66740;DHT22;53653;52.188;8.602;2023-02-02T13:49:17;6.07;89.93
66740;DHT22;53653;52.188;8.602;2023-02-02T14:02:47;5.94;90.59
66740;DHT22;53653;52.188;8.602;2023-02-02T14:05:35;5.97;90.34
66740;DHT22;53653;52.188;8.602;2023-02-02T14:08:07;5.97;90.34
66740;DHT22;53653;52.188;8.602;2023-02-02T14:10:43;5.86;90.85
66740;DHT22;53653;52.188;8.602;2023-02-02T14:15:58;5.81;90.82
66740;DHT22;53653;52.188;8.602;2023-02-02T14:23:56;5.79;90.77
66740;DHT22;53653;52.188;8.602;2023-02-02T14:26:45;5.76;91.06
66740;DHT22;53653;52.188;8.602;2023-02-02T14:32:01;5.74;91.44
66740;DHT22;53653;52.188;8.602;2023-02-02T14:34:34;5.72;91.55
66740;DHT22;53653;52.188;8.602;2023-02-02T14:45:41;5.63;91.58
66740;DHT22;53653;52.188;8.602;2023-02-02T14:48:09;5.63;91.48
66740;DHT22;53653;52.188;8.602;2023-02-02T14:55:30;5.59;91.33
66740;DHT22;53653;52.188;8.602;2023-02-02T14:58:02;5.63;91.18
66740;DHT22;53653;52.188;8.602;2023-02-02T15:00:33;5.59;91.44
66740;DHT22;53653;52.188;8.602;2023-02-02T15:04:16;5.60;91.52
66740;DHT22;53653;52.188;8.602;2023-02-02T15:17:18;5.56;91.74
66740;DHT22;53653;52.188;8.602;2023-02-02T15:19:53;5.62;91.58
66740;DHT22;53653;52.188;8.602;2023-02-02T15:22:41;5.53;91.86
66740;DHT22;53653;52.188;8.602;2023-02-02T15:28:06;5.31;93.06
66740;DHT22;53653;52.188;8.602;2023-02-02T15:30:34;5.35;93.39
66740;DHT22;53653;52.188;8.602;2023-02-02T15:33:11;5.36;93.31
66740;DHT22;53653;52.188;8.602;2023-02-02T15:35:39;5.32;93.67
66740;DHT22;53653;52.188;8.602;2023-02-02T15:38:06;5.31;93.69
66740;DHT22;53653;52.188;8.602;2023-02-02T15:40:39;5.21;94.23
66740;DHT22;53653;52.188;8.602;2023-02-02T15:43:19;5.27;94.19
66740;DHT22;53653;52.188;8.602;2023-02-02T15:45:51;5.21;94.17
66740;DHT22;53653;52.188;8.602;2023-02-02T15:50:45;5.22;94.43
66740;DHT22;53653;52.188;8.602;2023-02-02T15:53:20;5.24;94.43
66740;DHT22;53653;52.188;8.602;2023-02-02T15:55:46;5.22;94.63
66740;DHT22;53653;52.188;8.602;2023-02-02T15:58:41;5.14;94.81
66740;DHT22;53653;52.188;8.602;2023-02-02T16:01:17;5.15;94.97
66740;DHT22;53653;52.188;8.602;2023-02-02T16:06:38;5.05;95.09
66740;DHT22;53653;52.188;8.602;2023-02-02T16:09:05;4.98;95.49
66740;DHT22;53653;52.188;8.602;2023-02-02T16:11:31;5.00;95.63
66740;DHT22;53653;52.188;8.602;2023-02-02T16:14:02;4.97;95.53
66740;DHT22;53653;52.188;8.602;2023-02-02T16:16:38;4.98;95.47
66740;DHT22;53653;52.188;8.602;2023-02-02T16:21:55;5.00;95.06
66740;DHT22;53653;52.188;8.602;2023-02-02T16:24:52;4.93;95.27
66740;DHT22;53653;52.188;8.602;2023-02-02T16:27:24;4.87;95.57
66740;DHT22;53653;52.188;8.602;2023-02-02T16:29:50;4.84;95.73
66740;DHT22;53653;52.188;8.602;2023-02-02T16:34:50;4.79;96.13
66740;DHT22;53653;52.188;8.602;2023-02-02T16:37:30;4.83;96.13
66740;DHT22;53653;52.188;8.602;2023-02-02T16:40:31;4.81;96.25
66740;DHT22;53653;52.188;8.602;2023-02-02T16:48:27;4.84;96.21
66740;DHT22;53653;52.188;8.602;2023-02-02T16:53:59;4.76;96.31
66740;DHT22;53653;52.188;8.602;2023-02-02T16:56:30;4.74;96.31
66740;DHT22;53653;52.188;8.602;2023-02-02T16:59:00;4.76;96.32
66740;DHT22;53653;52.188;8.602;2023-02-02T17:01:45;4.77;96.39
66740;DHT22;53653;52.188;8.602;2023-02-02T17:04:32;4.79;96.30
66740;DHT22;53653;52.188;8.602;2023-02-02T17:07:12;4.79;96.13
66740;DHT22;53653;52.188;8.602;2023-02-02T17:09:44;4.74;96.23
66740;DHT22;53653;52.188;8.602;2023-02-02T17:14:54;4.69;96.24
66740;DHT22;53653;52.188;8.602;2023-02-02T17:17:22;4.66;96.23
66740;DHT22;53653;52.188;8.602;2023-02-02T17:19:48;4.63;96.40
66740;DHT22;53653;52.188;8.602;2023-02-02T17:22:15;4.64;96.51
66740;DHT22;53653;52.188;8.602;2023-02-02T17:24:43;4.64;96.45
66740;DHT22;53653;52.188;8.602;2023-02-02T17:27:14;4.62;96.57
66740;DHT22;53653;52.188;8.602;2023-02-02T17:29:43;4.60;96.60
66740;DHT22;53653;52.188;8.602;2023-02-02T17:32:11;4.63;96.57
66740;DHT22;53653;52.188;8.602;2023-02-02T17:34:37;4.62;96.55
66740;DHT22;53653;52.188;8.602;2023-02-02T17:37:02;4.62;96.68
66740;DHT22;53653;52.188;8.602;2023-02-02T17:39:28;4.62;96.78
66740;DHT22;53653;52.188;8.602;2023-02-02T17:41:54;4.64;96.76
66740;DHT22;53653;52.188;8.602;2023-02-02T17:44:19;4.63;96.87
66740;DHT22;53653;52.188;8.602;2023-02-02T17:46:45;4.62;96.86
66740;DHT22;53653;52.188;8.602;2023-02-02T17:49:10;4.60;96.95
66740;DHT22;53653;52.188;8.602;2023-02-02T17:51:36;4.59;97.02
66740;DHT22;53653;52.188;8.602;2023-02-02T17:54:13;4.66;97.00
66740;DHT22;53653;52.188;8.602;2023-02-02T17:56:40;4.66;97.01
66740;DHT22;53653;52.188;8.602;2023-02-02T17:59:06;4.66;97.25
66740;DHT22;53653;52.188;8.602;2023-02-02T18:01:34;4.66;97.13
66740;DHT22;53653;52.188;8.602;2023-02-02T18:04:01;4.67;97.13
66740;DHT22;53653;52.188;8.602;2023-02-02T18:06:27;4.67;97.16
66740;DHT22;53653;52.188;8.602;2023-02-02T18:08:52;4.66;97.23
66740;DHT22;53653;52.188;8.602;2023-02-02T18:11:18;4.66;97.20
66740;DHT22;53653;52.188;8.602;2023-02-02T18:13:44;4.69;97.30
66740;DHT22;53653;52.188;8.602;2023-02-02T18:16:10;4.70;97.29
66740;DHT22;53653;52.188;8.602;2023-02-02T18:18:36;4.70;97.33
66740;DHT22;53653;52.188;8.602;2023-02-02T18:21:07;4.73;97.41
66740;DHT22;53653;52.188;8.602;2023-02-02T18:23:33;4.74;97.44
66740;DHT22;53653;52.188;8.602;2023-02-02T18:26:13;4.73;97.50
66740;DHT22;53653;52.188;8.602;2023-02-02T18:28:41;4.73;97.57
66740;DHT22;53653;52.188;8.602;2023-02-02T18:31:09;4.77;97.46
66740;DHT22;53653;52.188;8.602;2023-02-02T18:33:34;4.76;97.49
66740;DHT22;53653;52.188;8.602;2023-02-02T18:36:08;4.77;97.58
66740;DHT22;53653;52.188;8.602;2023-02-02T18:38:40;4.76;97.71
66740;DHT22;53653;52.188;8.602;2023-02-02T18:41:05;4.76;97.78
66740;DHT22;53653;52.188;8.602;2023-02-02T18:43:31;4.74;97.81
66740;DHT22;53653;52.188;8.602;2023-02-02T18:46:02;4.76;97.93
66740;DHT22;53653;52.188;8.602;2023-02-02T18:48:29;4.77;97.88
66740;DHT22;53653;52.188;8.602;2023-02-02T18:50:55;4.81;97.93
66740;DHT22;53653;52.188;8.602;2023-02-02T18:53:21;4.81;97.93
66740;DHT22;53653;52.188;8.602;2023-02-02T18:55:46;4.84;97.88
66740;DHT22;53653;52.188;8.602;2023-02-02T18:58:12;4.87;97.89
66740;DHT22;53653;52.188;8.602;2023-02-02T19:00:42;4.87;97.82
66740;DHT22;53653;52.188;8.602;2023-02-02T19:03:08;4.88;97.86
66740;DHT22;53653;52.188;8.602;2023-02-02T19:05:34;4.88;97.94
66740;DHT22;53653;52.188;8.602;2023-02-02T19:08:18;4.93;97.85
66740;DHT22;53653;52.188;8.602;2023-02-02T19:10:44;4.90;98.06
66740;DHT22;53653;52.188;8.602;2023-02-02T19:13:18;5.01;97.84
66740;DHT22;53653;52.188;8.602;2023-02-02T19:15:46;5.03;97.67
66740;DHT22;53653;52.188;8.602;2023-02-02T19:18:20;5.00;97.80
66740;DHT22;53653;52.188;8.602;2023-02-02T19:20:47;5.04;97.87
66740;DHT22;53653;52.188;8.602;2023-02-02T19:23:18;5.05;97.75
66740;DHT22;53653;52.188;8.602;2023-02-02T19:25:45;5.04;97.76
66740;DHT22;53653;52.188;8.602;2023-02-02T19:28:28;5.10;97.71
66740;DHT22;53653;52.188;8.602;2023-02-02T19:30:56;5.08;97.77
66740;DHT22;53653;52.188;8.602;2023-02-02T19:33:37;5.14;97.85
66740;DHT22;53653;52.188;8.602;2023-02-02T19:36:14;5.18;97.82
66740;DHT22;53653;52.188;8.602;2023-02-02T19:38:40;5.18;97.92
66740;DHT22;53653;52.188;8.602;2023-02-02T19:41:16;5.22;97.95
66740;DHT22;53653;52.188;8.602;2023-02-02T19:43:42;5.25;97.89
66740;DHT22;53653;52.188;8.602;2023-02-02T19:46:30;5.32;98.03
66740;DHT22;53653;52.188;8.602;2023-02-02T19:51:46;5.49;97.92
66740;DHT22;53653;52.188;8.602;2023-02-02T19:54:41;5.65;97.85
66740;DHT22;53653;52.188;8.602;2023-02-02T19:57:32;5.90;97.52
66740;DHT22;53653;52.188;8.602;2023-02-02T20:00:05;6.11;97.22
66740;DHT22;53653;52.188;8.602;2023-02-02T20:02:51;6.30;96.99
66740;DHT22;53653;52.188;8.602;2023-02-02T20:05:20;6.38;96.82
66740;DHT22;53653;52.188;8.602;2023-02-02T20:07:48;6.45;96.60
66740;DHT22;53653;52.188;8.602;2023-02-02T20:10:22;6.52;96.64
66740;DHT22;53653;52.188;8.602;2023-02-02T20:12:49;6.61;96.48
66740;DHT22;53653;52.188;8.602;2023-02-02T20:15:31;6.61;96.54
66740;DHT22;53653;52.188;8.602;2023-02-02T20:18:00;6.66;96.57
66740;DHT22;53653;52.188;8.602;2023-02-02T20:20:40;6.73;96.59
66740;DHT22;53653;52.188;8.602;2023-02-02T20:23:19;6.76;96.54
66740;DHT22;53653;52.188;8.602;2023-02-02T20:25:46;6.85;96.49
66740;DHT22;53653;52.188;8.602;2023-02-02T20:28:37;6.85;96.60
66740;DHT22;53653;52.188;8.602;2023-02-02T20:31:07;6.89;96.68
66740;DHT22;53653;52.188;8.602;2023-02-02T20:33:33;6.95;96.52
66740;DHT22;53653;52.188;8.602;2023-02-02T20:36:00;6.99;96.55
66740;DHT22;53653;52.188;8.602;2023-02-02T20:38:36;6.99;96.50
66740;DHT22;53653;52.188;8.602;2023-02-02T20:41:02;7.03;96.52
66740;DHT22;53653;52.188;8.602;2023-02-02T20:43:30;7.04;96.54
66740;DHT22;53653;52.188;8.602;2023-02-02T20:45:55;7.07;96.57
66740;DHT22;53653;52.188;8.602;2023-02-02T20:48:21;7.10;96.54
66740;DHT22;53653;52.188;8.602;2023-02-02T20:50:48;7.14;96.56
66740;DHT22;53653;52.188;8.602;2023-02-02T20:53:14;7.14;96.57
66740;DHT22;53653;52.188;8.602;2023-02-02T20:55:41;7.20;96.54
66740;DHT22;53653;52.188;8.602;2023-02-02T20:58:08;7.23;96.47
66740;DHT22;53653;52.188;8.602;2023-02-02T21:00:36;7.24;96.48
66740;DHT22;53653;52.188;8.602;2023-02-02T21:03:02;7.27;96.53
66740;DHT22;53653;52.188;8.602;2023-02-02T21:05:28;7.27;96.51
66740;DHT22;53653;52.188;8.602;2023-02-02T21:07:54;7.35;96.49
66740;DHT22;53653;52.188;8.602;2023-02-02T21:10:21;7.41;96.33
66740;DHT22;53653;52.188;8.602;2023-02-02T21:12:46;7.43;96.25
66740;DHT22;53653;52.188;8.602;2023-02-02T21:15:12;7.47;96.24
66740;DHT22;53653;52.188;8.602;2023-02-02T21:17:37;7.45;96.33
66740;DHT22;53653;52.188;8.602;2023-02-02T21:20:05;7.52;96.22
66740;DHT22;53653;52.188;8.602;2023-02-02T21:22:30;7.51;96.20
66740;DHT22;53653;52.188;8.602;2023-02-02T21:24:56;7.54;96.22
66740;DHT22;53653;52.188;8.602;2023-02-02T21:27:21;7.58;96.04
66740;DHT22;53653;52.188;8.602;2023-02-02T21:29:47;7.59;96.02
66740;DHT22;53653;52.188;8.602;2023-02-02T21:32:13;7.66;95.93
66740;DHT22;53653;52.188;8.602;2023-02-02T21:34:38;7.62;95.80
66740;DHT22;53653;52.188;8.602;2023-02-02T21:37:11;7.66;95.83
66740;DHT22;53653;52.188;8.602;2023-02-02T21:39:37;7.69;95.66
66740;DHT22;53653;52.188;8.602;2023-02-02T21:44:33;7.68;95.64
66740;DHT22;53653;52.188;8.602;2023-02-02T21:46:59;7.72;95.58
66740;DHT22;53653;52.188;8.602;2023-02-02T21:49:27;7.72;95.59
66740;DHT22;53653;52.188;8.602;2023-02-02T21:51:59;7.72;95.42
66740;DHT22;53653;52.188;8.602;2023-02-02T21:54:28;7.72;95.59
66740;DHT22;53653;52.188;8.602;2023-02-02T21:56:57;7.71;95.58
66740;DHT22;53653;52.188;8.602;2023-02-02T21:59:32;7.71;95.60
66740;DHT22;53653;52.188;8.602;2023-02-02T22:04:56;7.75;95.41
66740;DHT22;53653;52.188;8.602;2023-02-02T22:07:22;7.75;95.36
66740;DHT22;53653;52.188;8.602;2023-02-02T22:09:48;7.75;95.43
66740;DHT22;53653;52.188;8.602;2023-02-02T22:12:19;7.79;95.35
66740;DHT22;53653;52.188;8.602;2023-02-02T22:14:47;7.78;95.27
66740;DHT22;53653;52.188;8.602;2023-02-02T22:19:38;7.81;95.15
66740;DHT22;53653;52.188;8.602;2023-02-02T22:24:32;7.82;95.10
66740;DHT22;53653;52.188;8.602;2023-02-02T22:26:58;7.86;95.09
66740;DHT22;53653;52.188;8.602;2023-02-02T22:29:23;7.86;95.05
66740;DHT22;53653;52.188;8.602;2023-02-02T22:31:49;7.87;95.00
66740;DHT22;53653;52.188;8.602;2023-02-02T22:34:14;7.83;95.02
66740;DHT22;53653;52.188;8.602;2023-02-02T22:36:40;7.87;94.88
66740;DHT22;53653;52.188;8.602;2023-02-02T22:39:05;7.82;94.87
66740;DHT22;53653;52.188;8.602;2023-02-02T22:41:31;7.85;94.97
66740;DHT22;53653;52.188;8.602;2023-02-02T22:43:56;7.89;94.83
66740;DHT22;53653;52.188;8.602;2023-02-02T22:46:22;7.90;94.84
66740;DHT22;53653;52.188;8.602;2023-02-02T22:48:47;7.82;94.80
66740;DHT22;53653;52.188;8.602;2023-02-02T22:51:13;7.92;94.73
66740;DHT22;53653;52.188;8.602;2023-02-02T22:53:38;7.93;94.60
66740;DHT22;53653;52.188;8.602;2023-02-02T22:56:04;7.89;94.65
66740;DHT22;53653;52.188;8.602;2023-02-02T22:58:30;7.92;94.65
66740;DHT22;53653;52.188;8.602;2023-02-02T23:00:55;7.93;94.61
66740;DHT22;53653;52.188;8.602;2023-02-02T23:03:21;7.97;94.57
66740;DHT22;53653;52.188;8.602;2023-02-02T23:05:46;7.95;94.60
66740;DHT22;53653;52.188;8.602;2023-02-02T23:08:12;7.95;94.50
66740;DHT22;53653;52.188;8.602;2023-02-02T23:10:38;7.99;94.42
66740;DHT22;53653;52.188;8.602;2023-02-02T23:13:04;8.00;94.36
66740;DHT22;53653;52.188;8.602;2023-02-02T23:15:30;7.99;94.24
66740;DHT22;53653;52.188;8.602;2023-02-02T23:17:56;8.00;94.10